createdAt,value
2023-02-19T00:01:11.325Z,8.55
2023-02-19T00:03:38.969Z,8.55
2023-02-19T00:06:07.498Z,8.50
2023-02-19T00:08:34.880Z,8.49
2023-02-19T00:11:11.916Z,8.50
2023-02-19T00:13:40.432Z,8.56
2023-02-19T00:16:12.529Z,8.55
2023-02-19T00:18:39.864Z,8.60
2023-02-19T00:21:06.523Z,8.60
2023-02-19T00:23:33.277Z,8.60
2023-02-19T00:26:17.237Z,8.61
2023-02-19T00:28:45.888Z,8.66
2023-02-19T00:31:25.809Z,8.67
2023-02-19T00:33:55.200Z,8.69
2023-02-19T00:36:22.360Z,8.72
2023-02-19T00:38:49.381Z,8.73
2023-02-19T00:41:20.091Z,8.77
2023-02-19T00:44:00.854Z,8.84
2023-02-19T00:46:30.439Z,8.84
2023-02-19T00:48:57.861Z,8.90
2023-02-19T00:51:27.283Z,8.99
2023-02-19T00:53:54.065Z,8.96
2023-02-19T00:56:20.852Z,8.97
2023-02-19T00:58:47.657Z,9.00
2023-02-19T01:01:14.557Z,8.98
2023-02-19T01:03:41.038Z,8.95
2023-02-19T01:06:09.132Z,8.96
2023-02-19T01:08:36.084Z,8.97
2023-02-19T01:11:04.573Z,8.99
2023-02-19T01:13:31.129Z,8.99
2023-02-19T01:16:08.027Z,9.03
2023-02-19T01:18:35.134Z,9.07
2023-02-19T01:21:07.132Z,9.02
2023-02-19T01:23:34.168Z,9.00
2023-02-19T01:26:01.041Z,9.05
2023-02-19T01:28:27.529Z,9.07
2023-02-19T01:30:54.597Z,9.07
2023-02-19T01:33:21.101Z,9.03
2023-02-19T01:35:47.536Z,9.11
2023-02-19T01:38:13.972Z,9.10
2023-02-19T01:40:40.382Z,9.07
2023-02-19T01:43:15.059Z,9.06
2023-02-19T01:45:44.341Z,9.03
2023-02-19T01:48:17.417Z,9.09
2023-02-19T01:50:47.142Z,9.12
2023-02-19T01:53:14.904Z,9.17
2023-02-19T01:55:41.954Z,9.18
2023-02-19T01:58:09.209Z,9.13
2023-02-19T02:00:36.203Z,9.09
2023-02-19T02:03:03.048Z,9.07
2023-02-19T02:06:06.792Z,9.02
2023-02-19T02:08:52.618Z,8.93
2023-02-19T02:11:20.276Z,8.83
2023-02-19T02:13:47.247Z,8.75
2023-02-19T02:16:24.119Z,8.67
2023-02-19T02:19:09.728Z,8.62
2023-02-19T02:21:48.861Z,8.54
2023-02-19T02:24:24.238Z,8.50
2023-02-19T02:27:12.313Z,8.48
2023-02-19T02:30:03.716Z,8.42
2023-02-19T02:32:35.790Z,8.38
2023-02-19T02:35:09.717Z,8.36
2023-02-19T02:37:39.314Z,8.31
2023-02-19T02:40:08.026Z,8.30
2023-02-19T02:42:35.878Z,8.33
2023-02-19T02:45:36.475Z,8.28
2023-02-19T02:48:18.205Z,8.29
2023-02-19T02:51:14.345Z,8.29
2023-02-19T02:54:12.936Z,8.26
2023-02-19T02:56:41.282Z,8.23
2023-02-19T02:59:10.583Z,8.24
2023-02-19T03:02:04.239Z,8.19
2023-02-19T03:04:37.676Z,8.17
2023-02-19T03:07:08.213Z,8.15
2023-02-19T03:09:41.315Z,8.11
2023-02-19T03:15:27.232Z,8.09
2023-02-19T03:18:20.291Z,8.08
2023-02-19T03:20:49.390Z,8.07
2023-02-19T03:23:17.636Z,8.05
2023-02-19T03:26:02.799Z,8.03
2023-02-19T03:28:51.557Z,8.02
2023-02-19T03:31:21.475Z,8.02
2023-02-19T03:33:52.518Z,8.04
2023-02-19T03:36:25.660Z,8.05
2023-02-19T03:38:59.655Z,8.10
2023-02-19T03:41:35.350Z,8.05
2023-02-19T03:44:14.208Z,8.02
2023-02-19T03:46:47.355Z,8.06
2023-02-19T03:49:40.788Z,8.08
2023-02-19T03:52:18.059Z,8.09
2023-02-19T03:54:59.957Z,8.05
2023-02-19T03:58:00.239Z,8.05
2023-02-19T04:00:40.562Z,8.04
2023-02-19T04:03:16.395Z,8.02
2023-02-19T04:05:46.902Z,8.08
2023-02-19T04:08:18.558Z,8.08
2023-02-19T04:10:46.457Z,8.10
2023-02-19T04:13:17.410Z,8.06
2023-02-19T04:15:44.562Z,8.03
2023-02-19T04:18:15.444Z,8.05
2023-02-19T04:20:45.772Z,8.07
2023-02-19T04:23:13.345Z,8.03
2023-02-19T04:25:42.375Z,8.01
2023-02-19T04:28:09.558Z,8.01
2023-02-19T04:30:36.304Z,7.97
2023-02-19T04:33:02.873Z,7.90
2023-02-19T04:35:29.699Z,7.94
2023-02-19T04:37:56.219Z,7.95
2023-02-19T04:40:22.686Z,7.97
2023-02-19T04:42:49.117Z,7.98
2023-02-19T04:45:15.733Z,8.02
2023-02-19T04:47:43.266Z,8.03
2023-02-19T04:50:09.834Z,7.99
2023-02-19T04:52:36.573Z,8.02
2023-02-19T04:55:02.996Z,8.04
2023-02-19T04:57:29.390Z,8.06
2023-02-19T04:59:55.854Z,8.01
2023-02-19T05:02:22.524Z,8.02
2023-02-19T05:04:49.323Z,7.94
2023-02-19T05:07:15.718Z,7.94
2023-02-19T05:09:42.138Z,8.03
2023-02-19T05:12:08.559Z,8.01
2023-02-19T05:14:35.206Z,7.99
2023-02-19T05:17:01.662Z,8.01
2023-02-19T05:19:28.374Z,8.00
2023-02-19T05:21:54.797Z,7.99
2023-02-19T05:24:21.304Z,7.98
2023-02-19T05:26:48.686Z,8.01
2023-02-19T05:29:15.162Z,7.97
2023-02-19T05:31:41.926Z,7.94
2023-02-19T05:34:08.476Z,7.92
2023-02-19T05:36:35.018Z,7.95
2023-02-19T05:39:01.773Z,7.96
2023-02-19T05:41:29.908Z,7.93
2023-02-19T05:43:57.345Z,7.92
2023-02-19T05:46:26.683Z,7.96
2023-02-19T05:48:53.800Z,7.94
2023-02-19T05:51:22.560Z,7.87
2023-02-19T05:53:50.045Z,7.89
2023-02-19T05:56:37.823Z,7.85
2023-02-19T05:59:14.682Z,7.87
2023-02-19T06:01:41.122Z,7.87
2023-02-19T06:04:08.710Z,7.84
2023-02-19T06:06:35.337Z,7.84
2023-02-19T06:09:01.838Z,7.83
2023-02-19T06:11:28.904Z,7.82
2023-02-19T06:13:55.353Z,7.79
2023-02-19T06:16:22.035Z,7.83
2023-02-19T06:18:48.742Z,7.81
2023-02-19T06:21:16.605Z,7.81
2023-02-19T06:23:43.592Z,7.82
2023-02-19T06:26:12.953Z,7.84
2023-02-19T06:28:40.583Z,7.86
2023-02-19T06:31:07.837Z,7.84
2023-02-19T06:33:34.972Z,7.85
2023-02-19T06:36:03.132Z,7.85
2023-02-19T06:38:30.958Z,7.83
2023-02-19T06:41:02.083Z,7.92
2023-02-19T06:43:28.926Z,7.94
2023-02-19T06:45:59.462Z,7.97
2023-02-19T06:48:27.278Z,7.93
2023-02-19T06:50:53.990Z,7.93
2023-02-19T06:53:20.674Z,7.94
2023-02-19T06:56:01.756Z,7.95
2023-02-19T06:58:28.673Z,7.95
2023-02-19T07:00:55.202Z,7.98
2023-02-19T07:03:21.816Z,7.97
2023-02-19T07:05:48.393Z,8.00
2023-02-19T07:08:17.221Z,7.97
2023-02-19T07:10:45.029Z,7.98
2023-02-19T07:13:11.741Z,8.03
2023-02-19T07:15:38.319Z,7.98
2023-02-19T07:18:07.101Z,7.99
2023-02-19T07:20:33.501Z,8.00
2023-02-19T07:22:59.925Z,7.97
2023-02-19T07:25:26.380Z,7.78
2023-02-19T07:27:53.311Z,7.63
2023-02-19T07:30:19.917Z,7.42
2023-02-19T07:32:46.568Z,7.28
2023-02-19T07:35:12.976Z,7.20
2023-02-19T07:37:41.233Z,7.03
2023-02-19T07:40:08.039Z,7.06
2023-02-19T07:42:34.444Z,6.98
2023-02-19T07:45:00.878Z,6.79
2023-02-19T07:47:28.912Z,6.79
2023-02-19T07:49:55.373Z,6.85
2023-02-19T07:52:21.732Z,6.69
2023-02-19T07:54:48.202Z,6.59
2023-02-19T07:57:14.689Z,6.45
2023-02-19T07:59:41.207Z,6.45
2023-02-19T08:02:37.160Z,6.41
2023-02-19T08:05:05.556Z,6.25
2023-02-19T08:07:35.987Z,6.27
2023-02-19T08:10:22.092Z,6.19
2023-02-19T08:13:14.879Z,6.20
2023-02-19T08:15:41.312Z,6.19
2023-02-19T08:18:08.323Z,6.22
2023-02-19T08:20:34.955Z,6.30
2023-02-19T08:23:01.417Z,6.35
2023-02-19T08:25:28.502Z,6.25
2023-02-19T08:27:54.884Z,6.22
2023-02-19T08:30:21.901Z,6.04
2023-02-19T08:32:48.485Z,6.01
2023-02-19T08:35:14.971Z,5.88
2023-02-19T08:37:41.349Z,5.71
2023-02-19T08:40:08.354Z,5.78
2023-02-19T08:42:35.427Z,5.67
2023-02-19T08:45:01.899Z,5.70
2023-02-19T08:47:28.564Z,5.45
2023-02-19T08:49:54.989Z,5.36
2023-02-19T08:52:21.449Z,5.22
2023-02-19T08:54:47.948Z,5.26
2023-02-19T08:57:14.684Z,5.06
2023-02-19T08:59:41.245Z,5.15
2023-02-19T09:02:09.318Z,5.21
2023-02-19T09:04:37.766Z,5.29
2023-02-19T09:07:07.691Z,5.19
2023-02-19T09:09:37.250Z,5.05
2023-02-19T09:12:07.896Z,4.97
2023-02-19T09:14:34.839Z,4.87
2023-02-19T09:17:02.477Z,4.91
2023-02-19T09:19:29.406Z,4.68
2023-02-19T09:21:56.337Z,4.63
2023-02-19T09:24:22.992Z,4.55
2023-02-19T09:26:53.133Z,4.68
2023-02-19T09:29:20.457Z,4.74
2023-02-19T09:31:47.148Z,4.74
2023-02-19T09:34:13.792Z,4.72
2023-02-19T09:36:40.612Z,4.59
2023-02-19T09:39:08.551Z,4.36
2023-02-19T09:41:46.434Z,4.56
2023-02-19T09:44:17.203Z,4.68
2023-02-19T09:46:51.995Z,4.76
2023-02-19T09:49:23.193Z,4.85
2023-02-19T09:52:02.640Z,5.03
2023-02-19T09:54:31.084Z,5.25
2023-02-19T09:57:00.946Z,5.60
2023-02-19T09:59:32.122Z,6.02
2023-02-19T10:02:23.582Z,6.05
2023-02-19T10:04:54.162Z,6.22
2023-02-19T10:07:48.126Z,6.35
2023-02-19T10:10:14.545Z,6.28
2023-02-19T10:12:50.564Z,6.37
2023-02-19T10:15:37.666Z,6.59
2023-02-19T10:18:05.507Z,6.46
2023-02-19T10:20:32.260Z,6.39
2023-02-19T10:23:10.890Z,6.20
2023-02-19T10:25:40.989Z,6.11
2023-02-19T10:28:15.032Z,6.51
2023-02-19T10:30:41.866Z,6.81
2023-02-19T10:33:11.690Z,6.86
2023-02-19T10:35:52.159Z,6.87
2023-02-19T10:38:20.715Z,7.02
2023-02-19T10:40:47.496Z,7.05
2023-02-19T10:43:23.137Z,7.01
2023-02-19T10:45:53.094Z,7.17
2023-02-19T10:48:31.620Z,6.96
2023-02-19T10:51:05.074Z,6.71
2023-02-19T10:53:52.024Z,6.76
2023-02-19T10:56:28.850Z,6.85
2023-02-19T10:58:55.391Z,6.71
2023-02-19T11:01:28.401Z,6.72
2023-02-19T11:04:17.881Z,6.89
2023-02-19T11:06:45.575Z,7.45
2023-02-19T11:09:35.980Z,7.08
2023-02-19T11:12:04.977Z,7.18
2023-02-19T11:14:32.378Z,6.92
2023-02-19T11:17:00.241Z,6.87
2023-02-19T11:19:36.776Z,6.54
2023-02-19T11:22:19.692Z,6.50
2023-02-19T11:24:50.991Z,6.64
2023-02-19T11:27:23.735Z,6.62
2023-02-19T11:29:50.413Z,6.85
2023-02-19T11:32:37.236Z,6.85
2023-02-19T11:35:17.577Z,6.60
2023-02-19T11:38:00.807Z,6.65
2023-02-19T11:40:42.524Z,7.44
2023-02-19T11:43:29.590Z,7.93
2023-02-19T11:46:09.616Z,7.71
2023-02-19T11:48:44.536Z,7.49
2023-02-19T11:51:20.237Z,7.41
2023-02-19T11:53:49.846Z,7.18
2023-02-19T11:56:36.995Z,7.06
2023-02-19T11:59:05.461Z,7.06
2023-02-19T12:01:37.964Z,7.16
2023-02-19T12:04:23.094Z,7.23
2023-02-19T12:07:04.841Z,6.99
2023-02-19T12:10:00.642Z,7.10
2023-02-19T12:12:38.745Z,7.19
2023-02-19T12:15:23.613Z,7.33
2023-02-19T12:18:12.806Z,7.47
2023-02-19T12:21:02.246Z,7.98
2023-02-19T12:23:28.952Z,8.43
2023-02-19T12:26:14.481Z,8.48
2023-02-19T12:28:47.934Z,8.64
2023-02-19T12:31:35.064Z,8.80
2023-02-19T12:34:07.468Z,8.25
2023-02-19T12:36:40.202Z,9.23
2023-02-19T12:39:35.313Z,9.56
2023-02-19T12:42:11.768Z,8.94
2023-02-19T12:44:42.677Z,8.82
2023-02-19T12:47:21.694Z,8.92
2023-02-19T12:50:19.152Z,8.93
2023-02-19T12:52:49.896Z,8.45
2023-02-19T12:55:23.135Z,7.96
2023-02-19T12:57:50.891Z,7.91
2023-02-19T13:00:29.785Z,9.03
2023-02-19T13:03:04.854Z,9.15
2023-02-19T13:05:42.462Z,9.58
2023-02-19T13:08:23.993Z,9.12
2023-02-19T13:10:57.433Z,9.32
2023-02-19T13:13:29.239Z,10.27
2023-02-19T13:16:00.748Z,11.65
2023-02-19T13:18:37.130Z,11.47
2023-02-19T13:21:06.203Z,11.59
2023-02-19T13:23:55.854Z,10.81
2023-02-19T13:26:30.481Z,10.60
2023-02-19T13:29:06.525Z,11.08
2023-02-19T13:31:52.359Z,11.20
2023-02-19T13:34:44.592Z,10.95
2023-02-19T13:37:11.601Z,10.36
2023-02-19T13:39:48.625Z,9.98
2023-02-19T13:42:25.018Z,10.45
2023-02-19T13:44:57.181Z,10.45
2023-02-19T13:47:57.339Z,9.94
2023-02-19T13:50:29.505Z,9.40
2023-02-19T13:53:02.212Z,9.08
2023-02-19T13:55:47.248Z,8.62
2023-02-19T13:58:51.266Z,9.26
2023-02-19T14:01:18.544Z,9.33
2023-02-19T14:03:54.061Z,8.73
2023-02-19T14:06:20.767Z,8.29
2023-02-19T14:08:48.365Z,8.19
2023-02-19T14:11:16.117Z,8.15
2023-02-19T14:13:51.850Z,7.90
2023-02-19T14:16:39.728Z,7.70
2023-02-19T14:19:36.521Z,7.46
2023-02-19T14:22:41.565Z,8.48
2023-02-19T14:25:18.905Z,9.30
2023-02-19T14:27:45.705Z,9.57
2023-02-19T14:30:13.372Z,9.54
2023-02-19T14:32:43.435Z,8.96
2023-02-19T14:35:20.853Z,8.33
2023-02-19T14:37:48.940Z,7.96
2023-02-19T14:40:22.823Z,8.02
2023-02-19T14:42:51.547Z,8.14
2023-02-19T14:45:18.052Z,8.21
2023-02-19T14:47:45.772Z,8.89
2023-02-19T14:50:28.512Z,9.20
2023-02-19T14:52:58.022Z,9.60
2023-02-19T14:55:34.978Z,9.70
2023-02-19T14:58:05.818Z,9.59
2023-02-19T15:00:40.766Z,9.74
2023-02-19T15:03:25.336Z,9.33
2023-02-19T15:06:04.820Z,9.28
2023-02-19T15:08:35.045Z,8.82
2023-02-19T15:11:03.183Z,8.75
2023-02-19T15:13:30.097Z,8.39
2023-02-19T15:15:57.277Z,8.32
2023-02-19T15:18:25.494Z,7.94
2023-02-19T15:20:58.422Z,7.88
2023-02-19T15:23:25.442Z,7.86
2023-02-19T15:25:52.532Z,7.63
2023-02-19T15:28:25.200Z,7.49
2023-02-19T15:30:57.880Z,7.48
2023-02-19T15:33:27.365Z,7.50
2023-02-19T15:35:56.216Z,7.43
2023-02-19T15:38:22.841Z,7.32
2023-02-19T15:40:49.853Z,7.23
2023-02-19T15:43:24.394Z,7.10
2023-02-19T15:45:52.464Z,6.96
2023-02-19T15:48:23.610Z,6.90
2023-02-19T15:50:54.989Z,6.89
2023-02-19T15:53:27.140Z,6.79
2023-02-19T15:56:05.363Z,6.71
2023-02-19T15:58:36.632Z,6.68
2023-02-19T16:01:25.112Z,6.54
2023-02-19T16:03:54.047Z,6.40
2023-02-19T16:06:21.295Z,6.25
2023-02-19T16:09:06.997Z,6.24
2023-02-19T16:11:48.423Z,6.04
2023-02-19T16:14:28.085Z,5.96
2023-02-19T16:17:01.426Z,5.81
2023-02-19T16:19:30.510Z,5.72
2023-02-19T16:21:58.226Z,5.58
2023-02-19T16:24:41.552Z,5.45
2023-02-19T16:27:08.603Z,5.37
2023-02-19T16:29:35.208Z,5.28
2023-02-19T16:32:04.385Z,5.25
2023-02-19T16:34:41.200Z,5.10
2023-02-19T16:37:29.768Z,5.02
2023-02-19T16:40:08.399Z,4.97
2023-02-19T16:42:35.997Z,4.98
2023-02-19T16:45:02.595Z,4.82
2023-02-19T16:47:34.891Z,4.74
2023-02-19T16:50:03.432Z,4.68
2023-02-19T16:52:30.411Z,4.73
2023-02-19T16:54:57.034Z,4.63
2023-02-19T16:57:23.761Z,4.56
2023-02-19T16:59:50.560Z,4.48
2023-02-19T17:02:20.304Z,4.34
2023-02-19T17:04:48.279Z,4.41
2023-02-19T17:07:16.359Z,4.36
2023-02-19T17:09:43.044Z,4.32
2023-02-19T17:12:12.063Z,4.29
2023-02-19T17:14:38.691Z,4.22
2023-02-19T17:17:05.481Z,4.13
2023-02-19T17:19:32.075Z,4.08
2023-02-19T17:21:58.953Z,4.05
2023-02-19T17:24:25.812Z,4.05
2023-02-19T17:26:52.322Z,4.04
2023-02-19T17:29:19.985Z,3.95
2023-02-19T17:31:46.683Z,3.97
2023-02-19T17:34:13.174Z,3.88
2023-02-19T17:36:40.472Z,3.78
2023-02-19T17:39:08.247Z,3.70
2023-02-19T17:41:34.776Z,3.68
2023-02-19T17:44:02.453Z,3.63
2023-02-19T17:46:30.085Z,3.59
2023-02-19T17:48:56.715Z,3.52
2023-02-19T17:51:23.454Z,3.53
2023-02-19T17:53:50.035Z,3.50
2023-02-19T17:56:22.038Z,3.45
2023-02-19T17:58:48.614Z,3.51
2023-02-19T18:01:15.984Z,3.47
2023-02-19T18:03:43.002Z,3.45
2023-02-19T18:06:09.683Z,3.48
2023-02-19T18:08:36.309Z,3.54
2023-02-19T18:11:03.855Z,3.55
2023-02-19T18:13:30.317Z,3.54
2023-02-19T18:15:56.806Z,3.47
2023-02-19T18:18:23.517Z,3.49
2023-02-19T18:20:50.350Z,3.43
2023-02-19T18:23:17.253Z,3.36
2023-02-19T18:25:43.927Z,3.29
2023-02-19T18:28:10.856Z,3.23
2023-02-19T18:30:37.445Z,3.26
2023-02-19T18:33:03.969Z,3.22
2023-02-19T18:35:30.492Z,3.16
2023-02-19T18:37:56.991Z,3.15
2023-02-19T18:40:26.959Z,3.10
2023-02-19T18:42:53.430Z,3.00
2023-02-19T18:45:20.052Z,2.96
2023-02-19T18:47:48.102Z,2.93
2023-02-19T18:50:15.840Z,2.90
2023-02-19T18:52:42.476Z,2.87
2023-02-19T18:55:11.053Z,2.86
2023-02-19T18:57:37.893Z,2.82
2023-02-19T19:00:06.448Z,2.84
2023-02-19T19:02:47.127Z,2.89
2023-02-19T19:05:23.454Z,2.90
2023-02-19T19:07:51.547Z,2.90
2023-02-19T19:10:18.764Z,2.86
2023-02-19T19:12:45.367Z,2.82
2023-02-19T19:15:11.852Z,2.80
2023-02-19T19:17:39.011Z,2.78
2023-02-19T19:20:07.454Z,2.74
2023-02-19T19:22:33.963Z,2.67
2023-02-19T19:25:00.749Z,2.63
2023-02-19T19:27:27.387Z,2.57
2023-02-19T19:29:53.902Z,2.50
2023-02-19T19:32:20.550Z,2.50
2023-02-19T19:34:47.548Z,2.47
2023-02-19T19:37:14.051Z,2.44
2023-02-19T19:39:43.275Z,2.49
2023-02-19T19:42:09.954Z,2.49
2023-02-19T19:44:36.887Z,2.42
2023-02-19T19:47:03.574Z,2.38
2023-02-19T19:49:30.175Z,2.36
2023-02-19T19:52:01.089Z,2.38
2023-02-19T19:54:28.474Z,2.42
2023-02-19T19:56:55.102Z,2.33
2023-02-19T19:59:22.402Z,2.22
2023-02-19T20:01:54.205Z,2.19
2023-02-19T20:04:21.917Z,2.20
2023-02-19T20:06:48.842Z,2.25
2023-02-19T20:09:16.391Z,2.27
2023-02-19T20:11:45.202Z,2.22
2023-02-19T20:14:11.764Z,2.08
2023-02-19T20:16:38.747Z,2.01
2023-02-19T20:19:05.456Z,2.02
2023-02-19T20:21:32.072Z,1.98
2023-02-19T20:23:58.768Z,1.93
2023-02-19T20:26:27.240Z,1.92
2023-02-19T20:28:54.507Z,1.83
2023-02-19T20:31:22.019Z,1.86
2023-02-19T20:33:50.999Z,1.73
2023-02-19T20:36:18.515Z,1.61
2023-02-19T20:38:45.298Z,1.58
2023-02-19T20:41:12.202Z,1.61
2023-02-19T20:43:38.887Z,1.58
2023-02-19T20:46:05.642Z,1.56
2023-02-19T20:48:32.213Z,1.50
2023-02-19T20:51:01.790Z,1.35
2023-02-19T20:53:29.719Z,1.24
2023-02-19T20:55:56.884Z,1.14
2023-02-19T20:58:23.993Z,1.10
2023-02-19T21:00:53.320Z,1.08
2023-02-19T21:03:20.923Z,1.01
2023-02-19T21:05:47.613Z,0.96
2023-02-19T21:08:15.078Z,0.83
2023-02-19T21:10:41.596Z,0.82
2023-02-19T21:13:08.096Z,0.77
2023-02-19T21:15:34.669Z,0.82
2023-02-19T21:18:01.461Z,0.90
2023-02-19T21:20:27.991Z,1.01
2023-02-19T21:22:54.543Z,1.03
2023-02-19T21:25:21.030Z,1.11
2023-02-19T21:27:47.604Z,1.10
2023-02-19T21:30:14.330Z,1.15
2023-02-19T21:32:41.267Z,1.14
2023-02-19T21:35:08.063Z,1.25
2023-02-19T21:37:34.765Z,1.38
2023-02-19T21:40:01.432Z,1.36
2023-02-19T21:42:27.932Z,1.39
2023-02-19T21:44:54.476Z,1.38
2023-02-19T21:47:20.960Z,1.38
2023-02-19T21:49:47.496Z,1.44
2023-02-19T21:52:14.019Z,1.45
2023-02-19T21:54:40.911Z,1.51
2023-02-19T21:57:09.303Z,1.50
2023-02-19T21:59:35.831Z,1.43
2023-02-19T22:02:02.430Z,1.47
2023-02-19T22:04:28.913Z,1.39
2023-02-19T22:06:56.648Z,1.32
2023-02-19T22:09:23.495Z,1.23
2023-02-19T22:11:50.056Z,1.18
2023-02-19T22:14:16.643Z,1.11
2023-02-19T22:16:43.394Z,1.06
2023-02-19T22:19:12.146Z,0.98
2023-02-19T22:21:42.846Z,0.93
2023-02-19T22:24:20.734Z,0.98
2023-02-19T22:26:50.504Z,0.94
2023-02-19T22:29:17.723Z,0.97
2023-02-19T22:31:44.336Z,0.96
2023-02-19T22:34:10.949Z,0.95
2023-02-19T22:36:37.516Z,1.03
2023-02-19T22:39:09.006Z,1.17
2023-02-19T22:41:35.518Z,1.25
2023-02-19T22:44:02.232Z,1.35
2023-02-19T22:46:30.545Z,1.51
2023-02-19T22:48:58.401Z,1.54
2023-02-19T22:51:25.492Z,1.63
2023-02-19T22:53:57.043Z,1.66
2023-02-19T22:56:25.583Z,1.71
2023-02-19T22:58:52.929Z,1.78
2023-02-19T23:01:19.827Z,2.00
2023-02-19T23:03:52.850Z,1.98
2023-02-19T23:06:25.654Z,2.09
2023-02-19T23:08:53.391Z,2.15
2023-02-19T23:11:21.927Z,2.22
2023-02-19T23:13:48.483Z,2.20
2023-02-19T23:16:15.545Z,2.44
2023-02-19T23:18:42.224Z,2.51
2023-02-19T23:21:09.341Z,2.56
2023-02-19T23:23:36.175Z,2.51
2023-02-19T23:26:04.065Z,2.53
2023-02-19T23:28:30.556Z,2.53
2023-02-19T23:30:57.387Z,2.48
2023-02-19T23:33:24.112Z,2.37
2023-02-19T23:35:50.633Z,2.41
2023-02-19T23:38:17.257Z,2.52
2023-02-19T23:40:45.247Z,2.65
2023-02-19T23:43:12.021Z,2.71
2023-02-19T23:45:38.656Z,2.60
2023-02-19T23:48:05.266Z,2.53
2023-02-19T23:50:31.786Z,2.55
2023-02-19T23:52:59.313Z,2.81
2023-02-19T23:55:26.546Z,2.90
2023-02-19T23:57:53.532Z,2.76
